sensor_id;sensor_type;location;lat;lon;timestamp;pressure;altitude;pressure_sealevel;temperature;humidity
31062;BME280;17724;53.546;9.974;2022-08-01T00:00:26;101243.72;;;19.25;100.00
31062;BME280;17724;53.546;9.974;2022-08-01T00:04:27;101243.81;;;19.20;100.00
31062;BME280;17724;53.546;9.974;2022-08-01T00:08:27;101249.75;;;19.32;100.00
31062;BME280;17724;53.546;9.974;2022-08-01T00:12:27;101252.47;;;19.51;100.00
31062;BME280;17724;53.546;9.974;2022-08-01T00:16:28;101248.47;;;19.25;100.00
31062;BME280;17724;53.546;9.974;2022-08-01T00:20:28;101251.25;;;19.25;100.00
31062;BME280;17724;53.546;9.974;2022-08-01T00:24:29;101241.06;;;19.34;100.00
31062;BME280;17724;53.546;9.974;2022-08-01T00:28:29;101244.19;;;19.13;100.00
31062;BME280;17724;53.546;9.974;2022-08-01T00:32:31;101251.66;;;19.18;100.00
31062;BME280;17724;53.546;9.974;2022-08-01T00:36:31;101244.09;;;19.18;100.00
31062;BME280;17724;53.546;9.974;2022-08-01T00:40:31;101244.75;;;19.15;100.00
31062;BME280;17724;53.546;9.974;2022-08-01T00:44:32;101243.13;;;19.28;100.00
31062;BME280;17724;53.546;9.974;2022-08-01T00:48:33;101240.59;;;19.13;100.00
31062;BME280;17724;53.546;9.974;2022-08-01T00:52:34;101238.94;;;19.12;100.00
31062;BME280;17724;53.546;9.974;2022-08-01T00:56:34;101240.44;;;19.23;100.00
31062;BME280;17724;53.546;9.974;2022-08-01T01:00:35;101240.53;;;19.32;100.00
31062;BME280;17724;53.546;9.974;2022-08-01T01:04:35;101242.06;;;19.24;100.00
31062;BME280;17724;53.546;9.974;2022-08-01T01:08:42;101243.34;;;19.32;100.00
31062;BME280;17724;53.546;9.974;2022-08-01T01:12:59;101247.38;;;19.53;100.00
31062;BME280;17724;53.546;9.974;2022-08-01T01:17:03;101247.38;;;19.39;100.00
31062;BME280;17724;53.546;9.974;2022-08-01T01:30:04;101255.59;;;19.31;100.00
31062;BME280;17724;53.546;9.974;2022-08-01T01:34:05;101253.94;;;19.30;100.00
31062;BME280;17724;53.546;9.974;2022-08-01T01:38:12;101251.03;;;19.21;100.00
31062;BME280;17724;53.546;9.974;2022-08-01T01:42:16;101256.97;;;19.33;100.00
31062;BME280;17724;53.546;9.974;2022-08-01T01:46:19;101262.97;;;19.40;100.00
31062;BME280;17724;53.546;9.974;2022-08-01T01:50:23;101262.22;;;19.35;100.00
31062;BME280;17724;53.546;9.974;2022-08-01T01:54:28;101257.19;;;19.04;100.00
31062;BME280;17724;53.546;9.974;2022-08-01T01:58:31;101260.00;;;19.18;100.00
31062;BME280;17724;53.546;9.974;2022-08-01T02:02:34;101258.91;;;19.19;100.00
31062;BME280;17724;53.546;9.974;2022-08-01T02:06:36;101268.59;;;19.22;100.00
31062;BME280;17724;53.546;9.974;2022-08-01T02:10:38;101278.75;;;19.31;100.00
31062;BME280;17724;53.546;9.974;2022-08-01T02:14:40;101269.91;;;19.10;100.00
31062;BME280;17724;53.546;9.974;2022-08-01T02:18:41;101269.97;;;19.24;100.00
31062;BME280;17724;53.546;9.974;2022-08-01T02:22:47;101272.84;;;19.19;100.00
31062;BME280;17724;53.546;9.974;2022-08-01T02:26:52;101268.94;;;19.34;100.00
31062;BME280;17724;53.546;9.974;2022-08-01T02:31:02;101278.56;;;19.41;100.00
31062;BME280;17724;53.546;9.974;2022-08-01T02:35:07;101268.13;;;19.01;100.00
31062;BME280;17724;53.546;9.974;2022-08-01T02:39:13;101267.59;;;19.31;100.00
31062;BME280;17724;53.546;9.974;2022-08-01T02:43:18;101267.63;;;19.45;100.00
31062;BME280;17724;53.546;9.974;2022-08-01T02:47:22;101269.25;;;19.65;100.00
31062;BME280;17724;53.546;9.974;2022-08-01T02:51:24;101278.44;;;19.65;100.00
31062;BME280;17724;53.546;9.974;2022-08-01T02:55:26;101276.34;;;19.25;100.00
31062;BME280;17724;53.546;9.974;2022-08-01T02:59:29;101284.53;;;19.35;100.00
31062;BME280;17724;53.546;9.974;2022-08-01T03:03:32;101285.44;;;19.30;100.00
31062;BME280;17724;53.546;9.974;2022-08-01T03:07:43;101286.78;;;19.19;100.00
31062;BME280;17724;53.546;9.974;2022-08-01T03:11:46;101289.13;;;19.58;100.00
31062;BME280;17724;53.546;9.974;2022-08-01T03:15:48;101295.84;;;19.43;100.00
31062;BME280;17724;53.546;9.974;2022-08-01T03:19:52;101291.66;;;19.27;100.00
31062;BME280;17724;53.546;9.974;2022-08-01T03:23:53;101296.69;;;19.58;100.00
31062;BME280;17724;53.546;9.974;2022-08-01T03:27:59;101295.13;;;19.52;100.00
31062;BME280;17724;53.546;9.974;2022-08-01T03:32:01;101296.00;;;19.33;100.00
31062;BME280;17724;53.546;9.974;2022-08-01T03:36:04;101301.38;;;19.30;100.00
31062;BME280;17724;53.546;9.974;2022-08-01T03:40:31;101300.28;;;19.44;100.00
31062;BME280;17724;53.546;9.974;2022-08-01T03:44:36;101304.31;;;19.71;100.00
31062;BME280;17724;53.546;9.974;2022-08-01T03:48:41;101304.81;;;19.73;100.00
31062;BME280;17724;53.546;9.974;2022-08-01T03:52:44;101314.44;;;19.81;100.00
31062;BME280;17724;53.546;9.974;2022-08-01T03:56:48;101317.13;;;19.86;100.00
31062;BME280;17724;53.546;9.974;2022-08-01T04:00:49;101322.91;;;19.76;100.00
31062;BME280;17724;53.546;9.974;2022-08-01T04:04:50;101316.63;;;19.84;100.00
31062;BME280;17724;53.546;9.974;2022-08-01T04:08:51;101339.84;;;19.47;100.00
31062;BME280;17724;53.546;9.974;2022-08-01T04:12:57;101333.97;;;19.48;100.00
31062;BME280;17724;53.546;9.974;2022-08-01T04:16:58;101337.84;;;19.33;100.00
31062;BME280;17724;53.546;9.974;2022-08-01T04:20:58;101337.09;;;19.28;100.00
31062;BME280;17724;53.546;9.974;2022-08-01T04:25:00;101337.16;;;19.23;100.00
31062;BME280;17724;53.546;9.974;2022-08-01T04:29:04;101345.06;;;19.34;100.00
31062;BME280;17724;53.546;9.974;2022-08-01T04:33:07;101354.22;;;19.21;100.00
31062;BME280;17724;53.546;9.974;2022-08-01T04:37:10;101355.56;;;19.24;100.00
31062;BME280;17724;53.546;9.974;2022-08-01T04:41:12;101364.19;;;19.08;100.00
31062;BME280;17724;53.546;9.974;2022-08-01T04:45:14;101374.41;;;19.13;100.00
31062;BME280;17724;53.546;9.974;2022-08-01T04:49:15;101362.75;;;18.92;100.00
31062;BME280;17724;53.546;9.974;2022-08-01T04:53:17;101373.28;;;19.33;100.00
31062;BME280;17724;53.546;9.974;2022-08-01T04:57:18;101378.31;;;19.31;100.00
31062;BME280;17724;53.546;9.974;2022-08-01T05:01:18;101388.63;;;19.49;100.00
31062;BME280;17724;53.546;9.974;2022-08-01T05:05:19;101377.25;;;19.64;100.00
31062;BME280;17724;53.546;9.974;2022-08-01T05:09:21;101371.41;;;19.61;100.00
31062;BME280;17724;53.546;9.974;2022-08-01T05:13:21;101380.25;;;19.49;100.00
31062;BME280;17724;53.546;9.974;2022-08-01T05:17:22;101378.59;;;19.48;100.00
31062;BME280;17724;53.546;9.974;2022-08-01T05:21:22;101382.22;;;19.49;100.00
31062;BME280;17724;53.546;9.974;2022-08-01T05:25:22;101394.19;;;19.49;100.00
31062;BME280;17724;53.546;9.974;2022-08-01T05:29:24;101403.13;;;19.32;100.00
31062;BME280;17724;53.546;9.974;2022-08-01T05:33:25;101402.44;;;19.40;100.00
31062;BME280;17724;53.546;9.974;2022-08-01T05:37:25;101410.44;;;19.47;100.00
31062;BME280;17724;53.546;9.974;2022-08-01T05:41:25;101413.03;;;19.57;100.00
31062;BME280;17724;53.546;9.974;2022-08-01T05:45:26;101418.56;;;19.43;100.00
31062;BME280;17724;53.546;9.974;2022-08-01T05:49:27;101409.81;;;19.50;100.00
31062;BME280;17724;53.546;9.974;2022-08-01T05:53:28;101421.50;;;19.52;100.00
31062;BME280;17724;53.546;9.974;2022-08-01T05:57:28;101428.00;;;19.48;100.00
31062;BME280;17724;53.546;9.974;2022-08-01T06:01:29;101424.38;;;19.47;100.00
31062;BME280;17724;53.546;9.974;2022-08-01T06:05:29;101427.81;;;19.58;100.00
31062;BME280;17724;53.546;9.974;2022-08-01T06:09:30;101431.06;;;19.46;100.00
31062;BME280;17724;53.546;9.974;2022-08-01T06:13:30;101438.31;;;19.66;100.00
31062;BME280;17724;53.546;9.974;2022-08-01T06:17:31;101422.75;;;19.79;100.00
31062;BME280;17724;53.546;9.974;2022-08-01T06:21:31;101431.44;;;19.77;100.00
31062;BME280;17724;53.546;9.974;2022-08-01T06:25:32;101435.66;;;19.75;100.00
31062;BME280;17724;53.546;9.974;2022-08-01T06:29:33;101448.31;;;19.86;100.00
31062;BME280;17724;53.546;9.974;2022-08-01T06:33:34;101453.28;;;19.89;100.00
31062;BME280;17724;53.546;9.974;2022-08-01T06:37:35;101458.81;;;19.37;100.00
31062;BME280;17724;53.546;9.974;2022-08-01T06:41:35;101460.84;;;19.51;100.00
31062;BME280;17724;53.546;9.974;2022-08-01T06:45:35;101465.16;;;19.43;100.00
31062;BME280;17724;53.546;9.974;2022-08-01T06:49:36;101466.84;;;19.63;100.00
31062;BME280;17724;53.546;9.974;2022-08-01T06:53:37;101475.19;;;19.44;100.00
31062;BME280;17724;53.546;9.974;2022-08-01T06:57:45;101481.28;;;19.27;100.00
31062;BME280;17724;53.546;9.974;2022-08-01T07:01:46;101479.84;;;19.49;100.00
31062;BME280;17724;53.546;9.974;2022-08-01T07:05:46;101481.84;;;19.67;100.00
31062;BME280;17724;53.546;9.974;2022-08-01T07:09:46;101480.03;;;19.76;100.00
31062;BME280;17724;53.546;9.974;2022-08-01T07:13:47;101482.34;;;19.88;100.00
31062;BME280;17724;53.546;9.974;2022-08-01T07:17:47;101486.75;;;19.75;100.00
31062;BME280;17724;53.546;9.974;2022-08-01T07:21:48;101492.00;;;19.39;100.00
31062;BME280;17724;53.546;9.974;2022-08-01T07:25:48;101496.50;;;19.54;100.00
31062;BME280;17724;53.546;9.974;2022-08-01T07:29:50;101503.75;;;19.55;100.00
31062;BME280;17724;53.546;9.974;2022-08-01T07:33:51;101511.00;;;19.37;100.00
31062;BME280;17724;53.546;9.974;2022-08-01T07:37:51;101513.31;;;19.30;100.00
31062;BME280;17724;53.546;9.974;2022-08-01T07:41:53;101521.00;;;19.38;99.67
31062;BME280;17724;53.546;9.974;2022-08-01T07:45:53;101525.06;;;19.69;100.00
31062;BME280;17724;53.546;9.974;2022-08-01T07:50:01;101524.88;;;19.61;98.63
31062;BME280;17724;53.546;9.974;2022-08-01T07:54:02;101538.72;;;19.71;97.51
31062;BME280;17724;53.546;9.974;2022-08-01T07:58:02;101540.81;;;19.79;96.77
31062;BME280;17724;53.546;9.974;2022-08-01T08:02:02;101549.47;;;19.78;96.25
31062;BME280;17724;53.546;9.974;2022-08-01T08:06:03;101555.66;;;19.75;97.51
31062;BME280;17724;53.546;9.974;2022-08-01T08:10:04;101563.16;;;19.79;97.09
31062;BME280;17724;53.546;9.974;2022-08-01T08:14:05;101566.69;;;20.04;96.82
31062;BME280;17724;53.546;9.974;2022-08-01T08:18:05;101567.59;;;19.99;93.71
31062;BME280;17724;53.546;9.974;2022-08-01T08:22:07;101574.31;;;19.79;90.14
31062;BME280;17724;53.546;9.974;2022-08-01T08:26:08;101570.16;;;19.77;85.76
31062;BME280;17724;53.546;9.974;2022-08-01T08:30:08;101584.13;;;19.77;84.70
31062;BME280;17724;53.546;9.974;2022-08-01T08:34:11;101580.78;;;19.93;84.06
31062;BME280;17724;53.546;9.974;2022-08-01T08:38:12;101582.22;;;20.42;84.07
31062;BME280;17724;53.546;9.974;2022-08-01T08:42:12;101575.97;;;20.51;83.19
31062;BME280;17724;53.546;9.974;2022-08-01T08:46:14;101572.00;;;20.84;83.42
31062;BME280;17724;53.546;9.974;2022-08-01T08:50:15;101585.38;;;21.15;82.93
31062;BME280;17724;53.546;9.974;2022-08-01T08:54:16;101592.84;;;21.33;80.98
31062;BME280;17724;53.546;9.974;2022-08-01T08:58:18;101595.56;;;21.38;78.07
31062;BME280;17724;53.546;9.974;2022-08-01T09:02:20;101599.97;;;21.53;77.84
31062;BME280;17724;53.546;9.974;2022-08-01T09:06:20;101599.28;;;21.48;75.42
31062;BME280;17724;53.546;9.974;2022-08-01T09:10:21;101627.16;;;21.39;70.76
31062;BME280;17724;53.546;9.974;2022-08-01T09:14:21;101616.47;;;21.55;70.68
31062;BME280;17724;53.546;9.974;2022-08-01T09:18:40;101615.56;;;21.82;68.65
31062;BME280;17724;53.546;9.974;2022-08-01T09:22:41;101604.97;;;21.93;66.87
31062;BME280;17724;53.546;9.974;2022-08-01T09:26:41;101617.97;;;22.25;68.94
31062;BME280;17724;53.546;9.974;2022-08-01T09:30:42;101625.97;;;22.18;69.02
31062;BME280;17724;53.546;9.974;2022-08-01T09:34:42;101621.56;;;22.03;69.70
31062;BME280;17724;53.546;9.974;2022-08-01T09:38:43;101630.31;;;22.10;70.63
31062;BME280;17724;53.546;9.974;2022-08-01T09:42:43;101636.56;;;22.21;70.79
31062;BME280;17724;53.546;9.974;2022-08-01T09:46:50;101633.75;;;22.66;70.28
31062;BME280;17724;53.546;9.974;2022-08-01T09:50:52;101638.09;;;22.27;68.18
31062;BME280;17724;53.546;9.974;2022-08-01T09:55:00;101641.25;;;23.01;70.02
31062;BME280;17724;53.546;9.974;2022-08-01T09:59:00;101634.59;;;23.28;70.17
31062;BME280;17724;53.546;9.974;2022-08-01T10:03:23;101635.66;;;23.50;68.76
31062;BME280;17724;53.546;9.974;2022-08-01T10:07:25;101644.94;;;23.59;65.45
31062;BME280;17724;53.546;9.974;2022-08-01T10:11:26;101633.63;;;22.93;65.85
31062;BME280;17724;53.546;9.974;2022-08-01T10:15:27;101642.81;;;23.65;64.50
31062;BME280;17724;53.546;9.974;2022-08-01T10:19:29;101650.31;;;23.78;63.56
31062;BME280;17724;53.546;9.974;2022-08-01T10:23:33;101656.28;;;24.37;63.98
31062;BME280;17724;53.546;9.974;2022-08-01T10:27:36;101661.56;;;24.91;62.28
31062;BME280;17724;53.546;9.974;2022-08-01T10:31:37;101653.84;;;24.18;61.31
31062;BME280;17724;53.546;9.974;2022-08-01T10:35:38;101653.13;;;24.73;59.45
31062;BME280;17724;53.546;9.974;2022-08-01T10:39:39;101644.72;;;25.29;59.63
31062;BME280;17724;53.546;9.974;2022-08-01T10:43:39;101655.03;;;25.84;57.81
31062;BME280;17724;53.546;9.974;2022-08-01T10:47:45;101648.66;;;25.96;52.71
31062;BME280;17724;53.546;9.974;2022-08-01T10:51:48;101650.72;;;27.65;51.62
31062;BME280;17724;53.546;9.974;2022-08-01T10:56:00;101656.91;;;25.80;51.28
31062;BME280;17724;53.546;9.974;2022-08-01T11:00:01;101657.22;;;24.93;53.21
31062;BME280;17724;53.546;9.974;2022-08-01T11:04:12;101657.53;;;25.00;54.21
31062;BME280;17724;53.546;9.974;2022-08-01T11:08:21;101665.56;;;24.03;53.64
31062;BME280;17724;53.546;9.974;2022-08-01T11:12:40;101649.97;;;23.71;53.56
31062;BME280;17724;53.546;9.974;2022-08-01T11:16:40;101660.22;;;23.84;54.25
31062;BME280;17724;53.546;9.974;2022-08-01T11:20:55;101662.56;;;23.91;53.51
31062;BME280;17724;53.546;9.974;2022-08-01T11:24:57;101675.31;;;23.48;54.56
31062;BME280;17724;53.546;9.974;2022-08-01T11:29:24;101657.66;;;23.56;53.31
31062;BME280;17724;53.546;9.974;2022-08-01T11:33:48;101678.06;;;23.40;51.45
31062;BME280;17724;53.546;9.974;2022-08-01T11:37:49;101673.28;;;23.40;51.80
31062;BME280;17724;53.546;9.974;2022-08-01T11:41:51;101670.66;;;23.04;53.18
31062;BME280;17724;53.546;9.974;2022-08-01T11:45:54;101672.84;;;23.16;53.24
31062;BME280;17724;53.546;9.974;2022-08-01T11:49:58;101670.66;;;23.04;52.48
31062;BME280;17724;53.546;9.974;2022-08-01T11:54:00;101672.91;;;22.71;51.53
31062;BME280;17724;53.546;9.974;2022-08-01T11:58:06;101673.19;;;23.14;51.64
31062;BME280;17724;53.546;9.974;2022-08-01T12:06:29;101673.44;;;23.35;54.26
31062;BME280;17724;53.546;9.974;2022-08-01T12:10:33;101682.72;;;23.13;53.92
31062;BME280;17724;53.546;9.974;2022-08-01T12:14:36;101686.06;;;23.15;52.66
31062;BME280;17724;53.546;9.974;2022-08-01T12:18:41;101690.88;;;23.23;53.54
31062;BME280;17724;53.546;9.974;2022-08-01T12:22:42;101690.47;;;23.39;53.58
31062;BME280;17724;53.546;9.974;2022-08-01T12:26:43;101694.63;;;23.50;54.40
31062;BME280;17724;53.546;9.974;2022-08-01T12:30:47;101699.47;;;23.18;54.55
31062;BME280;17724;53.546;9.974;2022-08-01T12:34:49;101713.38;;;23.01;53.61
31062;BME280;17724;53.546;9.974;2022-08-01T12:38:53;101705.44;;;22.80;53.48
31062;BME280;17724;53.546;9.974;2022-08-01T12:42:59;101705.97;;;23.05;54.37
31062;BME280;17724;53.546;9.974;2022-08-01T12:47:00;101696.28;;;22.66;53.72
31062;BME280;17724;53.546;9.974;2022-08-01T12:51:02;101694.06;;;22.99;53.88
31062;BME280;17724;53.546;9.974;2022-08-01T12:59:19;101689.31;;;22.86;54.83
31062;BME280;17724;53.546;9.974;2022-08-01T13:03:20;101695.50;;;22.97;53.83
31062;BME280;17724;53.546;9.974;2022-08-01T13:07:22;101697.16;;;22.75;53.25
31062;BME280;17724;53.546;9.974;2022-08-01T13:11:26;101699.00;;;22.80;52.92
31062;BME280;17724;53.546;9.974;2022-08-01T13:15:32;101700.59;;;22.50;52.03
31062;BME280;17724;53.546;9.974;2022-08-01T13:19:46;101693.91;;;22.59;54.41
31062;BME280;17724;53.546;9.974;2022-08-01T13:24:07;101690.84;;;22.47;51.75
31062;BME280;17724;53.546;9.974;2022-08-01T13:28:14;101695.78;;;22.28;51.64
31062;BME280;17724;53.546;9.974;2022-08-01T13:32:20;101701.81;;;22.57;53.15
31062;BME280;17724;53.546;9.974;2022-08-01T13:36:20;101686.88;;;22.12;52.11
31062;BME280;17724;53.546;9.974;2022-08-01T13:40:25;101693.69;;;22.33;52.64
31062;BME280;17724;53.546;9.974;2022-08-01T13:44:26;101701.50;;;22.09;51.71
31062;BME280;17724;53.546;9.974;2022-08-01T13:48:26;101693.63;;;22.11;51.32
31062;BME280;17724;53.546;9.974;2022-08-01T13:52:27;101696.91;;;22.41;52.90
31062;BME280;17724;53.546;9.974;2022-08-01T13:56:28;101700.56;;;22.27;50.16
31062;BME280;17724;53.546;9.974;2022-08-01T14:00:28;101705.50;;;22.44;51.45
31062;BME280;17724;53.546;9.974;2022-08-01T14:04:29;101718.06;;;22.47;51.68
31062;BME280;17724;53.546;9.974;2022-08-01T14:08:29;101700.66;;;22.36;50.96
31062;BME280;17724;53.546;9.974;2022-08-01T14:12:30;101701.91;;;22.30;50.50
31062;BME280;17724;53.546;9.974;2022-08-01T14:16:30;101709.75;;;22.42;52.18
31062;BME280;17724;53.546;9.974;2022-08-01T14:20:31;101717.41;;;22.50;50.90
31062;BME280;17724;53.546;9.974;2022-08-01T14:24:32;101716.56;;;22.27;50.36
31062;BME280;17724;53.546;9.974;2022-08-01T14:28:32;101720.50;;;21.98;47.49
31062;BME280;17724;53.546;9.974;2022-08-01T14:32:33;101712.81;;;22.31;50.41
31062;BME280;17724;53.546;9.974;2022-08-01T14:36:34;101714.94;;;21.84;51.41
31062;BME280;17724;53.546;9.974;2022-08-01T14:40:35;101720.13;;;21.63;51.64
31062;BME280;17724;53.546;9.974;2022-08-01T14:44:35;101732.88;;;21.83;52.76
31062;BME280;17724;53.546;9.974;2022-08-01T14:48:36;101727.06;;;21.52;50.58
31062;BME280;17724;53.546;9.974;2022-08-01T14:52:37;101727.38;;;21.92;50.64
31062;BME280;17724;53.546;9.974;2022-08-01T14:56:38;101728.94;;;21.84;51.45
31062;BME280;17724;53.546;9.974;2022-08-01T15:00:39;101729.84;;;21.94;51.91
31062;BME280;17724;53.546;9.974;2022-08-01T15:04:39;101733.91;;;22.01;52.80
31062;BME280;17724;53.546;9.974;2022-08-01T15:08:39;101731.84;;;21.93;52.47
31062;BME280;17724;53.546;9.974;2022-08-01T15:12:40;101720.94;;;21.78;52.42
31062;BME280;17724;53.546;9.974;2022-08-01T15:16:40;101728.75;;;21.95;53.17
31062;BME280;17724;53.546;9.974;2022-08-01T15:20:41;101734.50;;;21.98;52.15
31062;BME280;17724;53.546;9.974;2022-08-01T15:24:42;101733.91;;;22.01;53.38
31062;BME280;17724;53.546;9.974;2022-08-01T15:28:43;101733.59;;;21.89;52.68
31062;BME280;17724;53.546;9.974;2022-08-01T15:32:43;101745.72;;;21.98;53.08
31062;BME280;17724;53.546;9.974;2022-08-01T15:36:44;101740.34;;;21.88;53.25
31062;BME280;17724;53.546;9.974;2022-08-01T15:40:44;101745.16;;;21.27;52.70
31062;BME280;17724;53.546;9.974;2022-08-01T15:44:45;101754.56;;;21.64;54.28
31062;BME280;17724;53.546;9.974;2022-08-01T15:48:45;101750.22;;;21.72;54.28
31062;BME280;17724;53.546;9.974;2022-08-01T15:52:46;101752.06;;;21.76;52.69
31062;BME280;17724;53.546;9.974;2022-08-01T15:56:46;101746.34;;;21.54;53.32
31062;BME280;17724;53.546;9.974;2022-08-01T16:00:47;101761.28;;;21.16;53.78
31062;BME280;17724;53.546;9.974;2022-08-01T16:04:47;101757.97;;;21.61;54.41
31062;BME280;17724;53.546;9.974;2022-08-01T16:08:48;101753.84;;;21.72;53.89
31062;BME280;17724;53.546;9.974;2022-08-01T16:12:48;101760.47;;;21.62;53.41
31062;BME280;17724;53.546;9.974;2022-08-01T16:16:48;101755.28;;;21.70;53.86
31062;BME280;17724;53.546;9.974;2022-08-01T16:20:49;101757.88;;;21.66;54.22
31062;BME280;17724;53.546;9.974;2022-08-01T16:24:49;101766.16;;;21.57;53.55
31062;BME280;17724;53.546;9.974;2022-08-01T16:28:50;101773.66;;;20.78;55.85
31062;BME280;17724;53.546;9.974;2022-08-01T16:32:52;101773.28;;;20.84;55.76
31062;BME280;17724;53.546;9.974;2022-08-01T16:36:52;101765.22;;;21.15;54.40
31062;BME280;17724;53.546;9.974;2022-08-01T16:40:54;101773.41;;;21.45;54.87
31062;BME280;17724;53.546;9.974;2022-08-01T16:44:55;101779.03;;;20.74;55.87
31062;BME280;17724;53.546;9.974;2022-08-01T16:48:55;101778.69;;;21.13;56.21
31062;BME280;17724;53.546;9.974;2022-08-01T16:52:56;101783.28;;;20.72;58.08
31062;BME280;17724;53.546;9.974;2022-08-01T16:56:56;101782.50;;;21.04;57.22
31062;BME280;17724;53.546;9.974;2022-08-01T17:00:59;101782.28;;;21.00;56.00
31062;BME280;17724;53.546;9.974;2022-08-01T17:05:00;101791.50;;;21.33;56.37
31062;BME280;17724;53.546;9.974;2022-08-01T17:09:00;101793.81;;;21.45;56.19
31062;BME280;17724;53.546;9.974;2022-08-01T17:13:01;101792.94;;;21.31;54.52
31062;BME280;17724;53.546;9.974;2022-08-01T17:17:02;101788.78;;;20.39;55.51
31062;BME280;17724;53.546;9.974;2022-08-01T17:21:02;101800.72;;;20.82;56.75
31062;BME280;17724;53.546;9.974;2022-08-01T17:25:03;101794.59;;;20.99;57.82
31062;BME280;17724;53.546;9.974;2022-08-01T17:29:04;101802.75;;;20.39;55.45
31062;BME280;17724;53.546;9.974;2022-08-01T17:33:05;101790.53;;;20.54;57.07
31062;BME280;17724;53.546;9.974;2022-08-01T17:37:05;101791.91;;;20.56;56.72
31062;BME280;17724;53.546;9.974;2022-08-01T17:41:06;101813.94;;;20.77;57.00
31062;BME280;17724;53.546;9.974;2022-08-01T17:45:09;101812.66;;;20.69;56.24
31062;BME280;17724;53.546;9.974;2022-08-01T17:49:10;101800.53;;;20.36;56.54
31062;BME280;17724;53.546;9.974;2022-08-01T17:53:11;101799.16;;;20.33;56.83
31062;BME280;17724;53.546;9.974;2022-08-01T17:57:11;101815.19;;;20.47;56.28
31062;BME280;17724;53.546;9.974;2022-08-01T18:01:12;101812.97;;;20.25;55.67
31062;BME280;17724;53.546;9.974;2022-08-01T18:05:13;101815.16;;;20.52;56.76
31062;BME280;17724;53.546;9.974;2022-08-01T18:09:14;101821.34;;;20.49;56.17
31062;BME280;17724;53.546;9.974;2022-08-01T18:13:14;101818.56;;;20.49;56.18
31062;BME280;17724;53.546;9.974;2022-08-01T18:17:16;101820.50;;;20.48;57.04
31062;BME280;17724;53.546;9.974;2022-08-01T18:21:19;101828.16;;;20.37;57.15
31062;BME280;17724;53.546;9.974;2022-08-01T18:25:20;101818.38;;;20.40;57.23
31062;BME280;17724;53.546;9.974;2022-08-01T18:29:22;101827.56;;;20.40;57.63
31062;BME280;17724;53.546;9.974;2022-08-01T18:33:23;101816.31;;;20.27;56.36
31062;BME280;17724;53.546;9.974;2022-08-01T18:37:23;101820.41;;;19.57;56.96
31062;BME280;17724;53.546;9.974;2022-08-01T18:41:24;101820.94;;;19.64;58.45
31062;BME280;17724;53.546;9.974;2022-08-01T18:45:24;101823.19;;;19.86;57.44
31062;BME280;17724;53.546;9.974;2022-08-01T18:49:25;101824.50;;;19.70;58.88
31062;BME280;17724;53.546;9.974;2022-08-01T18:53:26;101833.13;;;19.74;57.49
31062;BME280;17724;53.546;9.974;2022-08-01T18:57:26;101827.47;;;19.79;59.30
31062;BME280;17724;53.546;9.974;2022-08-01T19:01:27;101831.72;;;19.42;60.02
31062;BME280;17724;53.546;9.974;2022-08-01T19:05:27;101828.53;;;19.54;60.52
31062;BME280;17724;53.546;9.974;2022-08-01T19:09:28;101827.53;;;19.74;61.31
31062;BME280;17724;53.546;9.974;2022-08-01T19:13:28;101840.88;;;19.13;60.61
31062;BME280;17724;53.546;9.974;2022-08-01T19:17:30;101842.16;;;19.60;60.98
31062;BME280;17724;53.546;9.974;2022-08-01T19:21:31;101851.22;;;19.47;60.70
31062;BME280;17724;53.546;9.974;2022-08-01T19:25:32;101859.81;;;19.51;61.59
31062;BME280;17724;53.546;9.974;2022-08-01T19:29:35;101856.50;;;19.49;61.73
31062;BME280;17724;53.546;9.974;2022-08-01T19:33:37;101857.91;;;19.46;62.59
31062;BME280;17724;53.546;9.974;2022-08-01T19:37:40;101862.47;;;19.37;63.58
31062;BME280;17724;53.546;9.974;2022-08-01T19:41:44;101866.91;;;19.38;62.31
31062;BME280;17724;53.546;9.974;2022-08-01T19:45:48;101870.06;;;19.26;62.83
31062;BME280;17724;53.546;9.974;2022-08-01T19:49:49;101862.91;;;19.15;62.92
31062;BME280;17724;53.546;9.974;2022-08-01T19:53:52;101870.00;;;18.97;64.01
31062;BME280;17724;53.546;9.974;2022-08-01T19:57:53;101874.50;;;18.93;63.28
31062;BME280;17724;53.546;9.974;2022-08-01T20:01:55;101878.41;;;18.87;63.48
31062;BME280;17724;53.546;9.974;2022-08-01T20:06:00;101883.44;;;18.90;64.09
31062;BME280;17724;53.546;9.974;2022-08-01T20:10:00;101887.13;;;18.80;63.13
31062;BME280;17724;53.546;9.974;2022-08-01T20:14:01;101879.06;;;18.74;64.02
31062;BME280;17724;53.546;9.974;2022-08-01T20:18:01;101881.84;;;18.74;64.46
31062;BME280;17724;53.546;9.974;2022-08-01T20:22:05;101883.50;;;18.69;64.47
31062;BME280;17724;53.546;9.974;2022-08-01T20:26:12;101885.50;;;18.59;65.26
31062;BME280;17724;53.546;9.974;2022-08-01T20:30:13;101892.22;;;18.58;65.01
31062;BME280;17724;53.546;9.974;2022-08-01T20:34:20;101875.25;;;18.49;64.78
31062;BME280;17724;53.546;9.974;2022-08-01T20:38:23;101876.38;;;18.48;65.19
31062;BME280;17724;53.546;9.974;2022-08-01T20:42:26;101882.81;;;18.38;65.69
31062;BME280;17724;53.546;9.974;2022-08-01T20:46:27;101887.59;;;18.33;65.69
31062;BME280;17724;53.546;9.974;2022-08-01T20:50:28;101872.84;;;18.22;66.51
31062;BME280;17724;53.546;9.974;2022-08-01T20:54:47;101881.78;;;18.19;66.39
31062;BME280;17724;53.546;9.974;2022-08-01T21:03:40;101890.19;;;18.04;66.25
31062;BME280;17724;53.546;9.974;2022-08-01T21:07:51;101890.78;;;17.95;66.36
31062;BME280;17724;53.546;9.974;2022-08-01T21:12:00;101902.75;;;17.81;66.89
31062;BME280;17724;53.546;9.974;2022-08-01T21:16:02;101908.34;;;17.76;66.74
31062;BME280;17724;53.546;9.974;2022-08-01T21:20:08;101918.34;;;17.77;67.36